Portada
METAR-TAF:

METAR-TAF

Aeropuertos :

Middleton Island, Alaska, Estados Unidos

latitud: 59-26N, longitud: 146-18W, altitud: 27 m

Observación

El informe se hizo hace 1 hora y 3 minutos, a las 07:51 UTC
Viento 18 kt del este
Temperatura 3°C
Humedad 100%
Presión 991 hPa
Visibilidad: 16.1 km
Cielo cubierto a una altura de 1000 ft
lluvia ligera

METAR: PAMD 280751Z AUTO 10018KT 10SM -RA OVC010 03/03 A2925 RMK AO2 CIG 008V014 SLP894 T00330028 400440022 PNO $

Hora: 23:54 (08:54 UTC)


TAF: falta

Observaciones y pronósticos meteorológicos de más de 4000 aeropuertos (mensajes METAR y TAF).

Los puntos amarillos y rojos representan las estaciones disponibles.

Ponga el ratón en el punto deseado para ver el nombre de la estación.

Haga clic para ver las observaciones y los pronósticos meteorológicos.

Para cambiar el mapa : haga clic en los botones verdes con una cruz de color negro para hacer un zoom, en el botón verde con un guión para alejar o en las flechas verdes para mapas adyacentes.


METAR-TAF: